QTR1398 GMMN-OTHH
Flight info
| Callsign | QTR1398 |
|---|---|
| Flight time | N/A |
| Altitude | 33000 |
| Route | SADIC UR975 FES/N0484F350 UA411 ORSUP UZ888 DIMAO UL874 OMENI DCT ARLOS DCT SALUN N705 BOPIX N710 TAKRI M720 FYM/N0484F370 M872 BDB Y214 RAPMA/N0504F290 Y214 ASPUS Y432 LADBO T142 LAEEB |
| Aircraft | B77W/H-SDE1E2E3FGHIJ2J3J4J5M1RWXY/LB1D1 |
Departure
| Time | 2026-04-30 09:46 |
|---|---|
| Airport | Mohammed V International Airport (GMMN) |
Arrival
| Time | N/A |
|---|---|
| Airport | Hamad International Airport (OTHH) |
| Time | Latitude | Longitude | Altitude | Speed | Heading |
|---|---|---|---|---|---|
| 2026-04-30 09:03 | 33.37107 | -7.58183 | 654 ft | 0 kts | 75° |
| 2026-04-30 09:34 | 33.37106 | -7.58185 | 653 ft | 1 kts | 75° |
| 2026-04-30 09:34 | 33.37103 | -7.58203 | 653 ft | 2 kts | 75° |
| 2026-04-30 09:35 | 33.37099 | -7.58220 | 653 ft | 2 kts | 75° |
| 2026-04-30 09:35 | 33.37096 | -7.58238 | 653 ft | 2 kts | 96° |
| 2026-04-30 09:35 | 33.37100 | -7.58255 | 653 ft | 2 kts | 119° |
| 2026-04-30 09:35 | 33.37109 | -7.58270 | 653 ft | 2 kts | 140° |
| 2026-04-30 09:36 | 33.37122 | -7.58279 | 653 ft | 2 kts | 161° |
| 2026-04-30 09:36 | 33.37136 | -7.58283 | 653 ft | 2 kts | 167° |
| 2026-04-30 09:36 | 33.37146 | -7.58286 | 653 ft | 1 kts | 165° |
| 2026-04-30 09:36 | 33.37147 | -7.58286 | 653 ft | 0 kts | 165° |
| 2026-04-30 09:38 | 33.37145 | -7.58285 | 653 ft | 1 kts | 165° |
| 2026-04-30 09:39 | 33.37114 | -7.58275 | 653 ft | 7 kts | 163° |
| 2026-04-30 09:39 | 33.37046 | -7.58251 | 653 ft | 11 kts | 163° |
| 2026-04-30 09:39 | 33.36981 | -7.58232 | 652 ft | 9 kts | 182° |
| 2026-04-30 09:39 | 33.36935 | -7.58292 | 650 ft | 12 kts | 248° |
| 2026-04-30 09:40 | 33.36911 | -7.58393 | 650 ft | 11 kts | 254° |
| 2026-04-30 09:40 | 33.36876 | -7.58456 | 650 ft | 9 kts | 200° |
| 2026-04-30 09:40 | 33.36799 | -7.58445 | 650 ft | 14 kts | 165° |
| 2026-04-30 09:40 | 33.36684 | -7.58406 | 651 ft | 19 kts | 163° |
| 2026-04-30 09:41 | 33.36538 | -7.58356 | 653 ft | 23 kts | 163° |
| 2026-04-30 09:41 | 33.36373 | -7.58300 | 656 ft | 26 kts | 163° |
| 2026-04-30 09:41 | 33.36203 | -7.58241 | 657 ft | 24 kts | 163° |
| 2026-04-30 09:41 | 33.36050 | -7.58188 | 659 ft | 20 kts | 163° |
| 2026-04-30 09:42 | 33.35923 | -7.58145 | 660 ft | 18 kts | 164° |
| 2026-04-30 09:42 | 33.35805 | -7.58104 | 660 ft | 17 kts | 163° |
| 2026-04-30 09:42 | 33.35684 | -7.58062 | 660 ft | 19 kts | 163° |
| 2026-04-30 09:42 | 33.35549 | -7.58015 | 662 ft | 20 kts | 163° |
| 2026-04-30 09:43 | 33.35411 | -7.57969 | 664 ft | 20 kts | 163° |
| 2026-04-30 09:43 | 33.35301 | -7.57944 | 665 ft | 12 kts | 192° |
| 2026-04-30 09:43 | 33.35251 | -7.58014 | 665 ft | 10 kts | 250° |
| 2026-04-30 09:43 | 33.35245 | -7.58038 | 665 ft | 2 kts | 253° |
| 2026-04-30 09:44 | 33.35240 | -7.58058 | 665 ft | 3 kts | 253° |
| 2026-04-30 09:44 | 33.35230 | -7.58097 | 665 ft | 7 kts | 253° |
| 2026-04-30 09:44 | 33.35210 | -7.58179 | 665 ft | 13 kts | 255° |
| 2026-04-30 09:44 | 33.35211 | -7.58256 | 664 ft | 7 kts | 313° |
| 2026-04-30 09:45 | 33.35241 | -7.58272 | 664 ft | 0 kts | 344° |
| 2026-04-30 09:45 | 33.35252 | -7.58276 | 664 ft | 8 kts | 344° |
| 2026-04-30 09:45 | 33.35414 | -7.58331 | 663 ft | 49 kts | 343° |
| 2026-04-30 09:45 | 33.35975 | -7.58523 | 660 ft | 115 kts | 343° |
| 2026-04-30 09:46 | 33.36930 | -7.58851 | 658 ft | 169 kts | 345° |
| 2026-04-30 09:46 | 33.38135 | -7.59253 | 1066 ft | 181 kts | 347° |
| 2026-04-30 09:46 | 33.39344 | -7.59619 | 1781 ft | 184 kts | 346° |
| 2026-04-30 09:46 | 33.40632 | -7.60061 | 2093 ft | 199 kts | 350° |
| 2026-04-30 09:47 | 33.42016 | -7.60091 | 2544 ft | 205 kts | 9° |
| 2026-04-30 09:47 | 33.43374 | -7.59566 | 3012 ft | 211 kts | 30° |
| 2026-04-30 09:47 | 33.44601 | -7.58525 | 3438 ft | 222 kts | 41° |
| 2026-04-30 09:47 | 33.45763 | -7.57244 | 3915 ft | 232 kts | 46° |
| 2026-04-30 09:48 | 33.46885 | -7.55747 | 4303 ft | 249 kts | 49° |
| 2026-04-30 09:48 | 33.48022 | -7.54129 | 4766 ft | 263 kts | 50° |
| 2026-04-30 09:48 | 33.49221 | -7.52414 | 5431 ft | 269 kts | 50° |
| 2026-04-30 09:48 | 33.50416 | -7.50708 | 6102 ft | 274 kts | 50° |
| 2026-04-30 09:49 | 33.51656 | -7.48938 | 6776 ft | 279 kts | 50° |
| 2026-04-30 09:49 | 33.52922 | -7.47130 | 7475 ft | 283 kts | 50° |
| 2026-04-30 09:49 | 33.54198 | -7.45306 | 8162 ft | 287 kts | 50° |
| 2026-04-30 09:49 | 33.55505 | -7.43434 | 8837 ft | 291 kts | 52° |
| 2026-04-30 09:50 | 33.56503 | -7.41304 | 9440 ft | 294 kts | 73° |
| 2026-04-30 09:50 | 33.57011 | -7.38870 | 10084 ft | 298 kts | 78° |
| 2026-04-30 09:50 | 33.57427 | -7.36400 | 10529 ft | 310 kts | 79° |
| 2026-04-30 09:50 | 33.57853 | -7.33813 | 10848 ft | 327 kts | 80° |
| 2026-04-30 09:51 | 33.58309 | -7.31064 | 11206 ft | 343 kts | 79° |
| 2026-04-30 09:51 | 33.58794 | -7.28154 | 11582 ft | 360 kts | 79° |
| 2026-04-30 09:51 | 33.59291 | -7.25163 | 11981 ft | 375 kts | 79° |
| 2026-04-30 09:51 | 33.59811 | -7.22041 | 12388 ft | 390 kts | 79° |
| 2026-04-30 09:52 | 33.60349 | -7.18799 | 12901 ft | 402 kts | 79° |
| 2026-04-30 09:52 | 33.60900 | -7.15476 | 13610 ft | 408 kts | 79° |
| 2026-04-30 09:52 | 33.61447 | -7.12171 | 14383 ft | 413 kts | 79° |
| 2026-04-30 09:52 | 33.61983 | -7.08764 | 15206 ft | 417 kts | 81° |
| 2026-04-30 09:53 | 33.62472 | -7.05312 | 16022 ft | 422 kts | 81° |
| 2026-04-30 09:53 | 33.62960 | -7.01853 | 16815 ft | 426 kts | 82° |
| 2026-04-30 09:53 | 33.63462 | -6.98304 | 17590 ft | 431 kts | 82° |
| 2026-04-30 09:53 | 33.63961 | -6.94777 | 18368 ft | 435 kts | 82° |
| 2026-04-30 09:54 | 33.64470 | -6.91172 | 19114 ft | 440 kts | 82° |
| 2026-04-30 09:54 | 33.64991 | -6.87543 | 19735 ft | 446 kts | 81° |
| 2026-04-30 09:54 | 33.65567 | -6.83859 | 20410 ft | 452 kts | 81° |
| 2026-04-30 09:54 | 33.66147 | -6.80181 | 21114 ft | 455 kts | 81° |
| 2026-04-30 09:55 | 33.66737 | -6.76425 | 21785 ft | 460 kts | 81° |
| 2026-04-30 09:55 | 33.67332 | -6.72626 | 22384 ft | 465 kts | 81° |
| 2026-04-30 09:55 | 33.67925 | -6.68828 | 22988 ft | 470 kts | 81° |
| 2026-04-30 09:55 | 33.68529 | -6.64941 | 23593 ft | 475 kts | 82° |
| 2026-04-30 09:56 | 33.69139 | -6.61009 | 24231 ft | 479 kts | 82° |
| 2026-04-30 09:56 | 33.69745 | -6.57087 | 24808 ft | 484 kts | 82° |
| 2026-04-30 09:56 | 33.70359 | -6.53110 | 25354 ft | 489 kts | 82° |
| 2026-04-30 09:56 | 33.70976 | -6.49101 | 25905 ft | 494 kts | 82° |
| 2026-04-30 09:57 | 33.71603 | -6.45014 | 26465 ft | 498 kts | 82° |
| 2026-04-30 09:57 | 33.72235 | -6.40892 | 27050 ft | 502 kts | 82° |
| 2026-04-30 09:57 | 33.72861 | -6.36794 | 27588 ft | 506 kts | 82° |
| 2026-04-30 09:57 | 33.73498 | -6.32617 | 28075 ft | 511 kts | 83° |
| 2026-04-30 09:58 | 33.74142 | -6.28384 | 28561 ft | 516 kts | 83° |
| 2026-04-30 09:58 | 33.74787 | -6.24129 | 29054 ft | 520 kts | 83° |
| 2026-04-30 09:58 | 33.75432 | -6.19871 | 29563 ft | 523 kts | 83° |
| 2026-04-30 09:58 | 33.76083 | -6.15559 | 30211 ft | 524 kts | 83° |
| 2026-04-30 09:59 | 33.77368 | -6.07035 | 31892 ft | 515 kts | 83° |
| 2026-04-30 09:59 | 33.78627 | -5.98633 | 33043 ft | 513 kts | 83° |
| 2026-04-30 10:00 | 33.80506 | -5.86003 | 33069 ft | 510 kts | 83° |
| 2026-04-30 10:01 | 33.82370 | -5.73384 | 33070 ft | 511 kts | 83° |
| 2026-04-30 10:02 | 33.84217 | -5.60782 | 33077 ft | 513 kts | 83° |
| 2026-04-30 10:02 | 33.85450 | -5.52318 | 33079 ft | 513 kts | 83° |
| 2026-04-30 10:03 | 33.86676 | -5.43856 | 33084 ft | 512 kts | 83° |
| 2026-04-30 10:03 | 33.87893 | -5.35416 | 33081 ft | 513 kts | 83° |
| 2026-04-30 10:04 | 33.89102 | -5.26988 | 33065 ft | 512 kts | 83° |
| 2026-04-30 10:04 | 33.90317 | -5.18472 | 33162 ft | 520 kts | 83° |
| 2026-04-30 10:04 | 33.90919 | -5.14237 | 33722 ft | 518 kts | 83° |
| 2026-04-30 10:05 | 33.91524 | -5.09978 | 34458 ft | 512 kts | 83° |
| 2026-04-30 10:05 | 33.92124 | -5.05744 | 34928 ft | 509 kts | 83° |
| 2026-04-30 10:05 | 33.92778 | -5.01618 | 35051 ft | 515 kts | 78° |
| 2026-04-30 10:06 | 33.95056 | -4.93363 | 35070 ft | 518 kts | 73° |
| 2026-04-30 10:06 | 33.97466 | -4.85211 | 35072 ft | 517 kts | 72° |
| 2026-04-30 10:07 | 33.99882 | -4.76992 | 35060 ft | 518 kts | 73° |
| 2026-04-30 10:07 | 34.02258 | -4.68870 | 35064 ft | 516 kts | 73° |
| 2026-04-30 10:08 | 34.04642 | -4.60686 | 35068 ft | 516 kts | 73° |
| 2026-04-30 10:08 | 34.07017 | -4.52509 | 35071 ft | 517 kts | 73° |
| 2026-04-30 10:09 | 34.09382 | -4.44341 | 35076 ft | 516 kts | 73° |
| 2026-04-30 10:09 | 34.11735 | -4.36190 | 35078 ft | 517 kts | 73° |
| 2026-04-30 10:10 | 34.14094 | -4.27993 | 35087 ft | 514 kts | 73° |
| 2026-04-30 10:10 | 34.16427 | -4.19861 | 35088 ft | 515 kts | 73° |
| 2026-04-30 10:11 | 34.18746 | -4.11632 | 35080 ft | 514 kts | 74° |
| 2026-04-30 10:11 | 34.21019 | -4.03367 | 35086 ft | 516 kts | 74° |
| 2026-04-30 10:12 | 34.23267 | -3.95182 | 35086 ft | 514 kts | 74° |
| 2026-04-30 10:12 | 34.25512 | -3.86984 | 35090 ft | 516 kts | 74° |
| 2026-04-30 10:13 | 34.27761 | -3.78751 | 35089 ft | 515 kts | 74° |
| 2026-04-30 10:13 | 34.30006 | -3.70515 | 35087 ft | 515 kts | 74° |
| 2026-04-30 10:14 | 34.32231 | -3.62324 | 35091 ft | 514 kts | 74° |
| 2026-04-30 10:14 | 34.35581 | -3.49949 | 35091 ft | 514 kts | 73° |
| 2026-04-30 10:15 | 34.37826 | -3.41735 | 35093 ft | 515 kts | 73° |
| 2026-04-30 10:15 | 34.40105 | -3.33498 | 35084 ft | 516 kts | 73° |
| 2026-04-30 10:16 | 34.42363 | -3.25305 | 35072 ft | 515 kts | 73° |
| 2026-04-30 10:17 | 34.45750 | -3.12964 | 35069 ft | 515 kts | 73° |
| 2026-04-30 10:17 | 34.49128 | -3.00593 | 35064 ft | 518 kts | 73° |
| 2026-04-30 10:18 | 34.51370 | -2.92351 | 35062 ft | 515 kts | 73° |
| 2026-04-30 10:19 | 34.54721 | -2.79984 | 35068 ft | 516 kts | 73° |
| 2026-04-30 10:19 | 34.56967 | -2.71697 | 35069 ft | 515 kts | 73° |
| 2026-04-30 10:20 | 34.59213 | -2.63496 | 35078 ft | 518 kts | 73° |
| 2026-04-30 10:20 | 34.62557 | -2.51088 | 35076 ft | 515 kts | 73° |
| 2026-04-30 10:21 | 34.64761 | -2.42797 | 35079 ft | 517 kts | 73° |
| 2026-04-30 10:21 | 34.66969 | -2.34474 | 35082 ft | 517 kts | 74° |
| 2026-04-30 10:22 | 34.69163 | -2.26178 | 35078 ft | 517 kts | 74° |
| 2026-04-30 10:22 | 34.71353 | -2.17874 | 35082 ft | 517 kts | 74° |
| 2026-04-30 10:23 | 34.73535 | -2.09572 | 35081 ft | 517 kts | 74° |
| 2026-04-30 10:23 | 34.75722 | -2.01229 | 35086 ft | 518 kts | 74° |
| 2026-04-30 10:24 | 34.78762 | -1.93276 | 35080 ft | 520 kts | 56° |
| 2026-04-30 10:24 | 34.83224 | -1.86373 | 35078 ft | 520 kts | 52° |
| 2026-04-30 10:25 | 34.86890 | -1.78869 | 35083 ft | 519 kts | 64° |
| 2026-04-30 10:25 | 34.90070 | -1.70943 | 35087 ft | 519 kts | 65° |
| 2026-04-30 10:26 | 34.93200 | -1.63085 | 35084 ft | 519 kts | 65° |
| 2026-04-30 10:26 | 34.96356 | -1.55134 | 35082 ft | 519 kts | 65° |
| 2026-04-30 10:27 | 34.99469 | -1.47269 | 35073 ft | 519 kts | 64° |
| 2026-04-30 10:27 | 35.02610 | -1.39312 | 35079 ft | 519 kts | 65° |
| 2026-04-30 10:28 | 35.05705 | -1.31448 | 35071 ft | 519 kts | 65° |
| 2026-04-30 10:28 | 35.08835 | -1.23476 | 35070 ft | 518 kts | 65° |
| 2026-04-30 10:29 | 35.11937 | -1.15556 | 35073 ft | 516 kts | 65° |
| 2026-04-30 10:29 | 35.15025 | -1.07655 | 35070 ft | 517 kts | 65° |
| 2026-04-30 10:30 | 35.18118 | -0.99717 | 35073 ft | 518 kts | 65° |
| 2026-04-30 10:30 | 35.21206 | -0.91774 | 35075 ft | 518 kts | 65° |
| 2026-04-30 10:31 | 35.24301 | -0.83795 | 35075 ft | 518 kts | 65° |
| 2026-04-30 10:31 | 35.27375 | -0.75849 | 35080 ft | 519 kts | 65° |
| 2026-04-30 10:32 | 35.30453 | -0.67872 | 35085 ft | 517 kts | 65° |
| 2026-04-30 10:32 | 35.33516 | -0.59915 | 35086 ft | 519 kts | 65° |
| 2026-04-30 10:33 | 35.36594 | -0.51897 | 35075 ft | 517 kts | 65° |
| 2026-04-30 10:33 | 35.39648 | -0.43922 | 35077 ft | 518 kts | 65° |
| 2026-04-30 10:34 | 35.42685 | -0.35973 | 35083 ft | 516 kts | 65° |
| 2026-04-30 10:34 | 35.45719 | -0.28014 | 35067 ft | 518 kts | 65° |
| 2026-04-30 10:35 | 35.48751 | -0.20037 | 35069 ft | 516 kts | 65° |
| 2026-04-30 10:35 | 35.51782 | -0.12045 | 35065 ft | 518 kts | 65° |
| 2026-04-30 10:36 | 35.54803 | -0.04058 | 35067 ft | 517 kts | 65° |
| 2026-04-30 10:36 | 35.57816 | 0.03927 | 35064 ft | 518 kts | 65° |
| 2026-04-30 10:37 | 35.60842 | 0.11964 | 35068 ft | 518 kts | 65° |
| 2026-04-30 10:37 | 35.63857 | 0.19997 | 35064 ft | 517 kts | 65° |
| 2026-04-30 10:38 | 35.66845 | 0.27973 | 35058 ft | 517 kts | 65° |
| 2026-04-30 10:38 | 35.69848 | 0.36012 | 35053 ft | 517 kts | 65° |
| 2026-04-30 10:39 | 35.72838 | 0.44039 | 35045 ft | 516 kts | 65° |
| 2026-04-30 10:39 | 35.75837 | 0.52107 | 35036 ft | 518 kts | 65° |
| 2026-04-30 10:40 | 35.78819 | 0.60153 | 35041 ft | 517 kts | 65° |
| 2026-04-30 10:40 | 35.81799 | 0.68212 | 35030 ft | 518 kts | 65° |
| 2026-04-30 10:41 | 35.84774 | 0.76279 | 35030 ft | 519 kts | 65° |
| 2026-04-30 10:41 | 35.87727 | 0.84307 | 35033 ft | 518 kts | 65° |
| 2026-04-30 10:42 | 35.90705 | 0.92422 | 35033 ft | 516 kts | 65° |
| 2026-04-30 10:42 | 35.93639 | 1.00440 | 35033 ft | 517 kts | 65° |
| 2026-04-30 10:43 | 35.96591 | 1.08526 | 35034 ft | 516 kts | 65° |
| 2026-04-30 10:43 | 35.99511 | 1.16546 | 35043 ft | 516 kts | 65° |
| 2026-04-30 10:44 | 36.02448 | 1.24632 | 35051 ft | 518 kts | 65° |
| 2026-04-30 10:44 | 36.05384 | 1.32739 | 35058 ft | 515 kts | 65° |
| 2026-04-30 10:45 | 36.08299 | 1.40807 | 35069 ft | 516 kts | 65° |
| 2026-04-30 10:45 | 36.11085 | 1.48951 | 35068 ft | 514 kts | 72° |
| 2026-04-30 10:46 | 36.12494 | 1.57579 | 35070 ft | 516 kts | 82° |
| 2026-04-30 10:46 | 36.13549 | 1.66327 | 35068 ft | 514 kts | 82° |
| 2026-04-30 10:47 | 36.14582 | 1.75015 | 35063 ft | 514 kts | 82° |
| 2026-04-30 10:47 | 36.15619 | 1.83802 | 35065 ft | 514 kts | 82° |
| 2026-04-30 10:48 | 36.16640 | 1.92538 | 35067 ft | 516 kts | 82° |
| 2026-04-30 10:48 | 36.17657 | 2.01272 | 35071 ft | 515 kts | 82° |
| 2026-04-30 10:49 | 36.18680 | 2.10103 | 35074 ft | 515 kts | 82° |
| 2026-04-30 10:49 | 36.19690 | 2.18883 | 35071 ft | 515 kts | 82° |
| 2026-04-30 10:50 | 36.20686 | 2.27590 | 35063 ft | 513 kts | 82° |
| 2026-04-30 10:50 | 36.21681 | 2.36361 | 35068 ft | 515 kts | 82° |
| 2026-04-30 10:51 | 36.22667 | 2.45108 | 35078 ft | 514 kts | 82° |
| 2026-04-30 10:51 | 36.23648 | 2.53866 | 35075 ft | 513 kts | 82° |
| 2026-04-30 10:52 | 36.24617 | 2.62577 | 35092 ft | 514 kts | 82° |
| 2026-04-30 10:52 | 36.25589 | 2.71393 | 35095 ft | 515 kts | 83° |
| 2026-04-30 10:53 | 36.26550 | 2.80173 | 35115 ft | 515 kts | 83° |
| 2026-04-30 10:53 | 36.27500 | 2.88926 | 35116 ft | 515 kts | 83° |
| 2026-04-30 10:54 | 36.28450 | 2.97733 | 35101 ft | 516 kts | 82° |
| 2026-04-30 10:54 | 36.29388 | 3.06492 | 35107 ft | 514 kts | 82° |
| 2026-04-30 10:55 | 36.30320 | 3.15252 | 35098 ft | 515 kts | 83° |
| 2026-04-30 10:55 | 36.31249 | 3.24047 | 35103 ft | 514 kts | 83° |
| 2026-04-30 10:56 | 36.32167 | 3.32797 | 35101 ft | 515 kts | 83° |
| 2026-04-30 10:56 | 36.33083 | 3.41605 | 35093 ft | 515 kts | 82° |
| 2026-04-30 10:57 | 36.33996 | 3.50436 | 35091 ft | 515 kts | 82° |
| 2026-04-30 10:57 | 36.34898 | 3.59228 | 35091 ft | 516 kts | 82° |
| 2026-04-30 10:58 | 36.35794 | 3.68029 | 35075 ft | 515 kts | 83° |
| 2026-04-30 10:58 | 36.36682 | 3.76816 | 35079 ft | 517 kts | 83° |
| 2026-04-30 10:59 | 36.37566 | 3.85623 | 35090 ft | 515 kts | 83° |
| 2026-04-30 10:59 | 36.38445 | 3.94444 | 35103 ft | 516 kts | 83° |
| 2026-04-30 11:00 | 36.39314 | 4.03226 | 35127 ft | 515 kts | 83° |
| 2026-04-30 11:00 | 36.40182 | 4.12074 | 35128 ft | 515 kts | 83° |
| 2026-04-30 11:01 | 36.41038 | 4.20873 | 35126 ft | 515 kts | 83° |
| 2026-04-30 11:01 | 36.41888 | 4.29669 | 35138 ft | 516 kts | 83° |
| 2026-04-30 11:02 | 36.42739 | 4.38543 | 35132 ft | 515 kts | 83° |
| 2026-04-30 11:02 | 36.43575 | 4.47339 | 35144 ft | 516 kts | 83° |
| 2026-04-30 11:03 | 36.44409 | 4.56179 | 35141 ft | 515 kts | 83° |
| 2026-04-30 11:04 | 36.45639 | 4.69354 | 35139 ft | 515 kts | 83° |
| 2026-04-30 11:04 | 36.46454 | 4.78160 | 35142 ft | 513 kts | 83° |
| 2026-04-30 11:05 | 36.47256 | 4.86903 | 35137 ft | 513 kts | 83° |
| 2026-04-30 11:05 | 36.48057 | 4.95712 | 35136 ft | 513 kts | 83° |
| 2026-04-30 11:06 | 36.48403 | 5.04497 | 35142 ft | 512 kts | 91° |
| 2026-04-30 11:06 | 36.48315 | 5.13352 | 35138 ft | 512 kts | 91° |
| 2026-04-30 11:07 | 36.48217 | 5.22218 | 35162 ft | 515 kts | 91° |
| 2026-04-30 11:07 | 36.48114 | 5.31048 | 35172 ft | 512 kts | 91° |
| 2026-04-30 11:08 | 36.48004 | 5.39859 | 35170 ft | 513 kts | 91° |
| 2026-04-30 11:08 | 36.47888 | 5.48691 | 35180 ft | 512 kts | 91° |
| 2026-04-30 11:09 | 36.47766 | 5.57524 | 35172 ft | 512 kts | 91° |
| 2026-04-30 11:09 | 36.47638 | 5.66326 | 35150 ft | 512 kts | 91° |
| 2026-04-30 11:10 | 36.47502 | 5.75199 | 35122 ft | 512 kts | 91° |
| 2026-04-30 11:10 | 36.47361 | 5.84017 | 35104 ft | 513 kts | 91° |
| 2026-04-30 11:11 | 36.47211 | 5.92852 | 35085 ft | 513 kts | 92° |
| 2026-04-30 11:11 | 36.47055 | 6.01660 | 35066 ft | 513 kts | 91° |
| 2026-04-30 11:12 | 36.46892 | 6.10501 | 35071 ft | 513 kts | 91° |
| 2026-04-30 11:12 | 36.46722 | 6.19358 | 35079 ft | 514 kts | 91° |
| 2026-04-30 11:13 | 36.46546 | 6.28203 | 35087 ft | 513 kts | 91° |
| 2026-04-30 11:13 | 36.46365 | 6.36971 | 35092 ft | 513 kts | 91° |
| 2026-04-30 11:14 | 36.46175 | 6.45835 | 35092 ft | 514 kts | 91° |
| 2026-04-30 11:14 | 36.45979 | 6.54688 | 35095 ft | 514 kts | 91° |
| 2026-04-30 11:15 | 36.45777 | 6.63502 | 35101 ft | 514 kts | 91° |
| 2026-04-30 11:15 | 36.45569 | 6.72331 | 35104 ft | 514 kts | 92° |
| 2026-04-30 11:16 | 36.45354 | 6.81181 | 35113 ft | 513 kts | 92° |
| 2026-04-30 11:16 | 36.45131 | 6.90046 | 35121 ft | 513 kts | 92° |
| 2026-04-30 11:17 | 36.44904 | 6.98828 | 35128 ft | 513 kts | 92° |
| 2026-04-30 11:17 | 36.44669 | 7.07687 | 35127 ft | 514 kts | 92° |
| 2026-04-30 11:18 | 36.44427 | 7.16529 | 35111 ft | 516 kts | 92° |
| 2026-04-30 11:18 | 36.44051 | 7.29859 | 35095 ft | 516 kts | 92° |
| 2026-04-30 11:19 | 36.43794 | 7.38681 | 35096 ft | 516 kts | 92° |
| 2026-04-30 11:19 | 36.43529 | 7.47550 | 35099 ft | 517 kts | 92° |
| 2026-04-30 11:20 | 36.43256 | 7.56452 | 35097 ft | 516 kts | 92° |
| 2026-04-30 11:20 | 36.42977 | 7.65353 | 35094 ft | 516 kts | 92° |
| 2026-04-30 11:21 | 36.42692 | 7.74232 | 35080 ft | 517 kts | 92° |
| 2026-04-30 11:21 | 36.42400 | 7.83115 | 35085 ft | 516 kts | 92° |
| 2026-04-30 11:22 | 36.42100 | 7.92033 | 35092 ft | 516 kts | 92° |
| 2026-04-30 11:22 | 36.41796 | 8.00880 | 35099 ft | 518 kts | 92° |
| 2026-04-30 11:23 | 36.41484 | 8.09781 | 35108 ft | 518 kts | 92° |
| 2026-04-30 11:24 | 36.41003 | 8.23113 | 35119 ft | 518 kts | 92° |
| 2026-04-30 11:24 | 36.40671 | 8.32090 | 35114 ft | 519 kts | 92° |
| 2026-04-30 11:25 | 36.39132 | 8.45278 | 35090 ft | 519 kts | 101° |
| 2026-04-30 11:26 | 36.36365 | 8.62822 | 35077 ft | 519 kts | 101° |
| 2026-04-30 11:26 | 36.34962 | 8.71632 | 35070 ft | 520 kts | 102° |
| 2026-04-30 11:27 | 36.33550 | 8.80450 | 35069 ft | 520 kts | 102° |
| 2026-04-30 11:27 | 36.32138 | 8.89212 | 35068 ft | 519 kts | 102° |
| 2026-04-30 11:28 | 36.29998 | 9.02425 | 35063 ft | 521 kts | 101° |
| 2026-04-30 11:29 | 36.28558 | 9.11254 | 35063 ft | 520 kts | 101° |
| 2026-04-30 11:29 | 36.26388 | 9.24482 | 35066 ft | 521 kts | 101° |
| 2026-04-30 11:30 | 36.24380 | 9.37664 | 35068 ft | 521 kts | 97° |
| 2026-04-30 11:31 | 36.23372 | 9.46581 | 35064 ft | 522 kts | 97° |
| 2026-04-30 11:31 | 36.22356 | 9.55388 | 35067 ft | 522 kts | 97° |
| 2026-04-30 11:32 | 36.21312 | 9.64270 | 35066 ft | 521 kts | 97° |
| 2026-04-30 11:32 | 36.20251 | 9.73176 | 35056 ft | 522 kts | 98° |
| 2026-04-30 11:33 | 36.18654 | 9.86431 | 35055 ft | 522 kts | 98° |
| 2026-04-30 11:33 | 36.17573 | 9.95312 | 35053 ft | 523 kts | 98° |
| 2026-04-30 11:34 | 36.16602 | 10.04227 | 35050 ft | 522 kts | 95° |
| 2026-04-30 11:34 | 36.15885 | 10.13111 | 35040 ft | 523 kts | 95° |
| 2026-04-30 11:35 | 36.15158 | 10.22079 | 35027 ft | 523 kts | 95° |
| 2026-04-30 11:35 | 36.14430 | 10.30990 | 35019 ft | 524 kts | 95° |
| 2026-04-30 11:36 | 36.13689 | 10.39970 | 35018 ft | 524 kts | 94° |
| 2026-04-30 11:36 | 36.12946 | 10.48898 | 35017 ft | 525 kts | 94° |
| 2026-04-30 11:37 | 36.12188 | 10.57915 | 35016 ft | 525 kts | 94° |
| 2026-04-30 11:37 | 36.11429 | 10.66870 | 35012 ft | 526 kts | 95° |
| 2026-04-30 11:38 | 36.10658 | 10.75874 | 35004 ft | 526 kts | 95° |
| 2026-04-30 11:38 | 36.09880 | 10.84890 | 35005 ft | 527 kts | 95° |
| 2026-04-30 11:39 | 36.09100 | 10.93844 | 35011 ft | 527 kts | 95° |
| 2026-04-30 11:39 | 36.08305 | 11.02898 | 35012 ft | 528 kts | 95° |
| 2026-04-30 11:40 | 36.07505 | 11.11923 | 35018 ft | 528 kts | 95° |
| 2026-04-30 11:40 | 36.06697 | 11.20963 | 35020 ft | 528 kts | 95° |
| 2026-04-30 11:41 | 36.05886 | 11.29963 | 35020 ft | 529 kts | 95° |
| 2026-04-30 11:41 | 36.05069 | 11.38957 | 35018 ft | 528 kts | 95° |
| 2026-04-30 11:42 | 36.04237 | 11.48032 | 35021 ft | 531 kts | 95° |
| 2026-04-30 11:42 | 36.03497 | 11.57066 | 35020 ft | 530 kts | 93° |
| 2026-04-30 11:43 | 36.02835 | 11.66118 | 35021 ft | 533 kts | 94° |
| 2026-04-30 11:43 | 36.02157 | 11.75197 | 35009 ft | 531 kts | 94° |
| 2026-04-30 11:44 | 36.01468 | 11.84286 | 35018 ft | 533 kts | 94° |
| 2026-04-30 11:44 | 36.00768 | 11.93408 | 35014 ft | 533 kts | 94° |
| 2026-04-30 11:45 | 36.00063 | 12.02469 | 35016 ft | 533 kts | 94° |
| 2026-04-30 11:45 | 35.99348 | 12.11584 | 35017 ft | 533 kts | 94° |
| 2026-04-30 11:46 | 35.98627 | 12.20653 | 35019 ft | 531 kts | 94° |
| 2026-04-30 11:46 | 35.97897 | 12.29769 | 35018 ft | 532 kts | 94° |
| 2026-04-30 11:47 | 35.97164 | 12.38830 | 35021 ft | 533 kts | 94° |
| 2026-04-30 11:47 | 35.96417 | 12.47974 | 35023 ft | 533 kts | 94° |
| 2026-04-30 11:48 | 35.95667 | 12.57054 | 35021 ft | 533 kts | 94° |
| 2026-04-30 11:48 | 35.94908 | 12.66169 | 35018 ft | 533 kts | 95° |
| 2026-04-30 11:49 | 35.94144 | 12.75265 | 35013 ft | 534 kts | 95° |
| 2026-04-30 11:49 | 35.93375 | 12.84336 | 35015 ft | 533 kts | 95° |
| 2026-04-30 11:50 | 35.92595 | 12.93442 | 35014 ft | 534 kts | 95° |
| 2026-04-30 11:50 | 35.91816 | 13.02467 | 35014 ft | 534 kts | 95° |
| 2026-04-30 11:51 | 35.91023 | 13.11576 | 35013 ft | 534 kts | 95° |
| 2026-04-30 11:51 | 35.90227 | 13.20632 | 35015 ft | 533 kts | 95° |
| 2026-04-30 11:52 | 35.89422 | 13.29713 | 35009 ft | 534 kts | 95° |
| 2026-04-30 11:52 | 35.88616 | 13.38724 | 35016 ft | 534 kts | 95° |
| 2026-04-30 11:53 | 35.87793 | 13.47849 | 35017 ft | 534 kts | 95° |
| 2026-04-30 11:53 | 35.86971 | 13.56880 | 35014 ft | 534 kts | 95° |
| 2026-04-30 11:54 | 35.86138 | 13.65969 | 35015 ft | 534 kts | 95° |
| 2026-04-30 11:54 | 35.85298 | 13.75039 | 35006 ft | 533 kts | 95° |
| 2026-04-30 11:55 | 35.84451 | 13.84127 | 35008 ft | 533 kts | 95° |
| 2026-04-30 11:55 | 35.83599 | 13.93189 | 35006 ft | 534 kts | 95° |
| 2026-04-30 11:56 | 35.82737 | 14.02270 | 35009 ft | 535 kts | 95° |
| 2026-04-30 11:56 | 35.81873 | 14.11316 | 35014 ft | 534 kts | 95° |
| 2026-04-30 11:57 | 35.80991 | 14.20467 | 35013 ft | 535 kts | 95° |
| 2026-04-30 11:57 | 35.80111 | 14.29524 | 35017 ft | 534 kts | 96° |
| 2026-04-30 11:58 | 35.79221 | 14.38618 | 35018 ft | 534 kts | 95° |
| 2026-04-30 11:58 | 35.78330 | 14.47639 | 35026 ft | 536 kts | 95° |
| 2026-04-30 11:59 | 35.77426 | 14.56732 | 35030 ft | 535 kts | 95° |
| 2026-04-30 11:59 | 35.76517 | 14.65798 | 35022 ft | 534 kts | 96° |
| 2026-04-30 12:00 | 35.75594 | 14.74932 | 35012 ft | 535 kts | 96° |
| 2026-04-30 12:00 | 35.74678 | 14.83939 | 35012 ft | 535 kts | 96° |
| 2026-04-30 12:01 | 35.73746 | 14.93021 | 35014 ft | 536 kts | 96° |
| 2026-04-30 12:01 | 35.72804 | 15.02133 | 35024 ft | 535 kts | 96° |
| 2026-04-30 12:02 | 35.71860 | 15.11205 | 35033 ft | 536 kts | 96° |
| 2026-04-30 12:02 | 35.70913 | 15.20235 | 35035 ft | 537 kts | 96° |
| 2026-04-30 12:03 | 35.69464 | 15.33920 | 35036 ft | 538 kts | 96° |
| 2026-04-30 12:04 | 35.68488 | 15.43053 | 35038 ft | 538 kts | 96° |
| 2026-04-30 12:04 | 35.67509 | 15.52156 | 35039 ft | 538 kts | 96° |
| 2026-04-30 12:05 | 35.66527 | 15.61214 | 35041 ft | 539 kts | 96° |
| 2026-04-30 12:05 | 35.65527 | 15.70374 | 35029 ft | 538 kts | 97° |
| 2026-04-30 12:06 | 35.64526 | 15.79475 | 35031 ft | 539 kts | 97° |
| 2026-04-30 12:06 | 35.63517 | 15.88588 | 35030 ft | 539 kts | 97° |
| 2026-04-30 12:07 | 35.62511 | 15.97610 | 35033 ft | 538 kts | 97° |
| 2026-04-30 12:07 | 35.61479 | 16.06799 | 35032 ft | 539 kts | 97° |
| 2026-04-30 12:08 | 35.60455 | 16.15860 | 35029 ft | 538 kts | 97° |
| 2026-04-30 12:08 | 35.59420 | 16.24947 | 35028 ft | 538 kts | 97° |
| 2026-04-30 12:09 | 35.58379 | 16.34032 | 35033 ft | 539 kts | 96° |
| 2026-04-30 12:09 | 35.57331 | 16.43108 | 35028 ft | 539 kts | 97° |
| 2026-04-30 12:10 | 35.56279 | 16.52161 | 35031 ft | 540 kts | 97° |
| 2026-04-30 12:10 | 35.55209 | 16.61310 | 35039 ft | 539 kts | 97° |
| 2026-04-30 12:11 | 35.54143 | 16.70360 | 35024 ft | 540 kts | 97° |
| 2026-04-30 12:11 | 35.53061 | 16.79487 | 35018 ft | 540 kts | 97° |
| 2026-04-30 12:12 | 35.51988 | 16.88480 | 35015 ft | 539 kts | 97° |
| 2026-04-30 12:12 | 35.50886 | 16.97658 | 35012 ft | 539 kts | 97° |
| 2026-04-30 12:13 | 35.49788 | 17.06742 | 35020 ft | 540 kts | 97° |
| 2026-04-30 12:13 | 35.48689 | 17.15777 | 35024 ft | 540 kts | 97° |
| 2026-04-30 12:14 | 35.47571 | 17.24902 | 35029 ft | 540 kts | 98° |
| 2026-04-30 12:14 | 35.46452 | 17.33983 | 35037 ft | 540 kts | 97° |
| 2026-04-30 12:15 | 35.45325 | 17.43072 | 35033 ft | 541 kts | 97° |
| 2026-04-30 12:15 | 35.44190 | 17.52167 | 35041 ft | 541 kts | 97° |
| 2026-04-30 12:16 | 35.43047 | 17.61261 | 35035 ft | 541 kts | 97° |
| 2026-04-30 12:16 | 35.41904 | 17.70305 | 35025 ft | 540 kts | 98° |
| 2026-04-30 12:17 | 35.40168 | 17.83941 | 35028 ft | 542 kts | 98° |
| 2026-04-30 12:17 | 35.38998 | 17.93053 | 35036 ft | 543 kts | 98° |
| 2026-04-30 12:18 | 35.38408 | 17.97636 | 34908 ft | 542 kts | 98° |
| 2026-04-30 12:18 | 35.37823 | 18.02158 | 35030 ft | 546 kts | 98° |
| 2026-04-30 12:18 | 35.36633 | 18.11319 | 35035 ft | 545 kts | 98° |
| 2026-04-30 12:19 | 35.35439 | 18.20453 | 35130 ft | 545 kts | 98° |
| 2026-04-30 12:19 | 35.34239 | 18.29578 | 35039 ft | 541 kts | 98° |
| 2026-04-30 12:20 | 35.33038 | 18.38659 | 35038 ft | 543 kts | 98° |
| 2026-04-30 12:20 | 35.31830 | 18.47732 | 35041 ft | 542 kts | 98° |
| 2026-04-30 12:21 | 35.30617 | 18.56793 | 35040 ft | 542 kts | 98° |
| 2026-04-30 12:21 | 35.29397 | 18.65854 | 35043 ft | 541 kts | 99° |
| 2026-04-30 12:22 | 35.28163 | 18.74968 | 35033 ft | 541 kts | 99° |
| 2026-04-30 12:22 | 35.26922 | 18.84073 | 35035 ft | 541 kts | 99° |
| 2026-04-30 12:23 | 35.25685 | 18.93106 | 35032 ft | 541 kts | 99° |
| 2026-04-30 12:23 | 35.24437 | 19.02160 | 35038 ft | 541 kts | 99° |
| 2026-04-30 12:24 | 35.23181 | 19.11226 | 35036 ft | 542 kts | 99° |
| 2026-04-30 12:24 | 35.21921 | 19.20259 | 35036 ft | 541 kts | 99° |
| 2026-04-30 12:25 | 35.20645 | 19.29364 | 35040 ft | 541 kts | 98° |
| 2026-04-30 12:25 | 35.19371 | 19.38403 | 35041 ft | 542 kts | 99° |
| 2026-04-30 12:26 | 35.18091 | 19.47436 | 35041 ft | 542 kts | 98° |
| 2026-04-30 12:26 | 35.16803 | 19.56473 | 35046 ft | 542 kts | 98° |
| 2026-04-30 12:27 | 35.15505 | 19.65530 | 35046 ft | 543 kts | 99° |
| 2026-04-30 12:27 | 35.14194 | 19.74625 | 35032 ft | 542 kts | 99° |
| 2026-04-30 12:28 | 35.12881 | 19.83685 | 35034 ft | 543 kts | 99° |
| 2026-04-30 12:28 | 35.11566 | 19.92715 | 35032 ft | 543 kts | 99° |
| 2026-04-30 12:29 | 35.10232 | 20.01820 | 35036 ft | 544 kts | 99° |
| 2026-04-30 12:29 | 35.08899 | 20.10873 | 35037 ft | 544 kts | 99° |
| 2026-04-30 12:30 | 35.07556 | 20.19942 | 35040 ft | 544 kts | 99° |
| 2026-04-30 12:30 | 35.06206 | 20.29009 | 35041 ft | 543 kts | 99° |
| 2026-04-30 12:31 | 35.04850 | 20.38069 | 35040 ft | 542 kts | 99° |
| 2026-04-30 12:31 | 35.03489 | 20.47113 | 35044 ft | 543 kts | 99° |
| 2026-04-30 12:32 | 35.02122 | 20.56152 | 35048 ft | 543 kts | 99° |
| 2026-04-30 12:32 | 35.00745 | 20.65207 | 35051 ft | 543 kts | 100° |
| 2026-04-30 12:33 | 34.99357 | 20.74291 | 35039 ft | 544 kts | 100° |
| 2026-04-30 12:33 | 34.97974 | 20.83294 | 35036 ft | 543 kts | 100° |
| 2026-04-30 12:34 | 34.96577 | 20.92341 | 35038 ft | 544 kts | 100° |
| 2026-04-30 12:34 | 34.95172 | 21.01393 | 35038 ft | 545 kts | 100° |
| 2026-04-30 12:35 | 34.93756 | 21.10471 | 35039 ft | 544 kts | 100° |
| 2026-04-30 12:35 | 34.92330 | 21.19565 | 35044 ft | 545 kts | 100° |
| 2026-04-30 12:36 | 34.90902 | 21.28623 | 35049 ft | 545 kts | 100° |
| 2026-04-30 12:36 | 34.89475 | 21.37632 | 35054 ft | 544 kts | 100° |
| 2026-04-30 12:37 | 34.88032 | 21.46698 | 35054 ft | 546 kts | 100° |
| 2026-04-30 12:37 | 34.86581 | 21.55765 | 35057 ft | 546 kts | 100° |
| 2026-04-30 12:38 | 34.85128 | 21.64806 | 35058 ft | 546 kts | 100° |
| 2026-04-30 12:38 | 34.83666 | 21.73854 | 35041 ft | 545 kts | 101° |
| 2026-04-30 12:39 | 34.82203 | 21.82860 | 35040 ft | 545 kts | 101° |
| 2026-04-30 12:39 | 34.80732 | 21.91873 | 35044 ft | 544 kts | 101° |
| 2026-04-30 12:40 | 34.79245 | 22.00942 | 35043 ft | 545 kts | 101° |
| 2026-04-30 12:40 | 34.77768 | 22.09908 | 35044 ft | 544 kts | 101° |
| 2026-04-30 12:41 | 34.76269 | 22.18960 | 35052 ft | 546 kts | 101° |
| 2026-04-30 12:41 | 34.74770 | 22.27970 | 35052 ft | 545 kts | 101° |
| 2026-04-30 12:42 | 34.73256 | 22.37025 | 35049 ft | 545 kts | 101° |
| 2026-04-30 12:42 | 34.71750 | 22.45993 | 35048 ft | 545 kts | 101° |
| 2026-04-30 12:43 | 34.70223 | 22.55039 | 35051 ft | 546 kts | 101° |
| 2026-04-30 12:43 | 34.68692 | 22.64066 | 35045 ft | 549 kts | 101° |
| 2026-04-30 12:44 | 34.67132 | 22.73224 | 35024 ft | 553 kts | 102° |
| 2026-04-30 12:44 | 34.65576 | 22.82317 | 35028 ft | 552 kts | 101° |
| 2026-04-30 12:45 | 34.64004 | 22.91456 | 35027 ft | 553 kts | 101° |
| 2026-04-30 12:45 | 34.61855 | 23.00412 | 35025 ft | 552 kts | 115° |
| 2026-04-30 12:46 | 34.58569 | 23.08779 | 35033 ft | 552 kts | 118° |
| 2026-04-30 12:46 | 34.55146 | 23.17112 | 35038 ft | 552 kts | 118° |
| 2026-04-30 12:47 | 34.51685 | 23.25400 | 35038 ft | 551 kts | 118° |
| 2026-04-30 12:47 | 34.48197 | 23.33672 | 35038 ft | 552 kts | 118° |
| 2026-04-30 12:48 | 34.44678 | 23.41963 | 35036 ft | 551 kts | 119° |
| 2026-04-30 12:48 | 34.41179 | 23.50165 | 35036 ft | 551 kts | 119° |
| 2026-04-30 12:49 | 34.37640 | 23.58431 | 35043 ft | 551 kts | 119° |
| 2026-04-30 12:49 | 34.34108 | 23.66653 | 35035 ft | 552 kts | 120° |
| 2026-04-30 12:50 | 34.30554 | 23.74905 | 35031 ft | 551 kts | 120° |
| 2026-04-30 12:50 | 34.27005 | 23.83122 | 35031 ft | 551 kts | 119° |
| 2026-04-30 12:51 | 34.23478 | 23.91267 | 35029 ft | 552 kts | 119° |
| 2026-04-30 12:51 | 34.19905 | 23.99499 | 35035 ft | 551 kts | 120° |
| 2026-04-30 12:52 | 34.16346 | 24.07679 | 35030 ft | 552 kts | 119° |
| 2026-04-30 12:52 | 34.12782 | 24.15851 | 35038 ft | 550 kts | 120° |
| 2026-04-30 12:53 | 34.09211 | 24.24019 | 35038 ft | 552 kts | 120° |
| 2026-04-30 12:53 | 34.05640 | 24.32169 | 35039 ft | 552 kts | 119° |
| 2026-04-30 12:54 | 34.02050 | 24.40305 | 35040 ft | 551 kts | 122° |
| 2026-04-30 12:54 | 33.97411 | 24.47572 | 35040 ft | 544 kts | 140° |
| 2026-04-30 12:55 | 33.91861 | 24.53703 | 35043 ft | 541 kts | 142° |
| 2026-04-30 12:55 | 33.86282 | 24.59728 | 35038 ft | 543 kts | 142° |
| 2026-04-30 12:56 | 33.80667 | 24.65769 | 35040 ft | 541 kts | 143° |
| 2026-04-30 12:56 | 33.75075 | 24.71766 | 35016 ft | 540 kts | 143° |
| 2026-04-30 12:57 | 33.69474 | 24.77758 | 35023 ft | 541 kts | 143° |
| 2026-04-30 12:57 | 33.63866 | 24.83744 | 35028 ft | 541 kts | 143° |
| 2026-04-30 12:58 | 33.58221 | 24.89757 | 35038 ft | 542 kts | 143° |
| 2026-04-30 12:58 | 33.52625 | 24.95709 | 35031 ft | 539 kts | 143° |
| 2026-04-30 12:59 | 33.46989 | 25.01691 | 35027 ft | 541 kts | 143° |
| 2026-04-30 12:59 | 33.41363 | 25.07651 | 35035 ft | 540 kts | 143° |
| 2026-04-30 13:00 | 33.35741 | 25.13595 | 35033 ft | 541 kts | 142° |
| 2026-04-30 13:00 | 33.30086 | 25.19564 | 35040 ft | 541 kts | 143° |
| 2026-04-30 13:01 | 33.24479 | 25.25472 | 35040 ft | 540 kts | 142° |
| 2026-04-30 13:01 | 33.18805 | 25.31438 | 35039 ft | 543 kts | 143° |
| 2026-04-30 13:02 | 33.13156 | 25.37370 | 35049 ft | 542 kts | 143° |
| 2026-04-30 13:02 | 33.07522 | 25.43275 | 35053 ft | 541 kts | 143° |
| 2026-04-30 13:03 | 33.01864 | 25.49193 | 35055 ft | 541 kts | 142° |
| 2026-04-30 13:03 | 32.96184 | 25.55124 | 35056 ft | 540 kts | 142° |
| 2026-04-30 13:04 | 32.90550 | 25.60997 | 35057 ft | 542 kts | 142° |
| 2026-04-30 13:04 | 32.84889 | 25.66888 | 35037 ft | 540 kts | 143° |
| 2026-04-30 13:05 | 32.79248 | 25.72747 | 35040 ft | 541 kts | 143° |
| 2026-04-30 13:06 | 32.70691 | 25.81616 | 35045 ft | 541 kts | 143° |
| 2026-04-30 13:06 | 32.65020 | 25.87481 | 35043 ft | 541 kts | 143° |
| 2026-04-30 13:07 | 32.59340 | 25.93345 | 35044 ft | 540 kts | 143° |
| 2026-04-30 13:07 | 32.53696 | 25.99162 | 35047 ft | 541 kts | 143° |
| 2026-04-30 13:08 | 32.48016 | 26.05006 | 35044 ft | 541 kts | 143° |
| 2026-04-30 13:08 | 32.42337 | 26.10838 | 35044 ft | 541 kts | 143° |
| 2026-04-30 13:09 | 32.36634 | 26.16684 | 35046 ft | 539 kts | 143° |
| 2026-04-30 13:09 | 32.30947 | 26.22505 | 35053 ft | 539 kts | 143° |
| 2026-04-30 13:10 | 32.25259 | 26.28316 | 35060 ft | 540 kts | 143° |
| 2026-04-30 13:10 | 32.19574 | 26.34115 | 35062 ft | 539 kts | 143° |
| 2026-04-30 13:11 | 32.13858 | 26.39934 | 35061 ft | 541 kts | 143° |
| 2026-04-30 13:11 | 32.08180 | 26.45706 | 35063 ft | 539 kts | 143° |
| 2026-04-30 13:12 | 32.02491 | 26.51478 | 35065 ft | 541 kts | 143° |
| 2026-04-30 13:12 | 31.96790 | 26.57253 | 35064 ft | 539 kts | 143° |
| 2026-04-30 13:13 | 31.88507 | 26.66264 | 35050 ft | 545 kts | 131° |
| 2026-04-30 13:14 | 31.81609 | 26.76983 | 35043 ft | 554 kts | 129° |
| 2026-04-30 13:14 | 31.74531 | 26.88071 | 35040 ft | 565 kts | 129° |
| 2026-04-30 13:15 | 31.67456 | 26.99128 | 35039 ft | 565 kts | 129° |
| 2026-04-30 13:16 | 31.62761 | 27.06447 | 35038 ft | 564 kts | 129° |
| 2026-04-30 13:16 | 31.58013 | 27.13835 | 35079 ft | 569 kts | 129° |
| 2026-04-30 13:17 | 31.53254 | 27.21227 | 36031 ft | 565 kts | 129° |
| 2026-04-30 13:17 | 31.50886 | 27.24900 | 36666 ft | 561 kts | 130° |
| 2026-04-30 13:17 | 31.46195 | 27.32166 | 37049 ft | 563 kts | 130° |
| 2026-04-30 13:18 | 31.43821 | 27.35836 | 37049 ft | 563 kts | 130° |
| 2026-04-30 13:18 | 31.36729 | 27.46783 | 37047 ft | 562 kts | 129° |
| 2026-04-30 13:19 | 31.31994 | 27.54074 | 37038 ft | 563 kts | 130° |
| 2026-04-30 13:19 | 31.27266 | 27.61342 | 37053 ft | 564 kts | 130° |
| 2026-04-30 13:20 | 31.22518 | 27.68627 | 37031 ft | 562 kts | 130° |
| 2026-04-30 13:20 | 31.17748 | 27.75932 | 37032 ft | 563 kts | 130° |
| 2026-04-30 13:21 | 31.12978 | 27.83222 | 37031 ft | 563 kts | 130° |
| 2026-04-30 13:22 | 31.05839 | 27.94109 | 37036 ft | 563 kts | 130° |
| 2026-04-30 13:22 | 30.98722 | 28.04932 | 37041 ft | 563 kts | 130° |
| 2026-04-30 13:23 | 30.91549 | 28.15808 | 37047 ft | 563 kts | 130° |
| 2026-04-30 13:24 | 30.81996 | 28.30250 | 37055 ft | 564 kts | 130° |
| 2026-04-30 13:25 | 30.72384 | 28.44725 | 37051 ft | 565 kts | 130° |
| 2026-04-30 13:26 | 30.60383 | 28.62727 | 37046 ft | 565 kts | 130° |
| 2026-04-30 13:28 | 30.48315 | 28.80745 | 37037 ft | 566 kts | 131° |
| 2026-04-30 13:28 | 30.41076 | 28.91515 | 37022 ft | 564 kts | 131° |
| 2026-04-30 13:29 | 30.31409 | 29.05851 | 37022 ft | 565 kts | 130° |
| 2026-04-30 13:31 | 30.19297 | 29.23742 | 37018 ft | 565 kts | 131° |
| 2026-04-30 13:32 | 30.07149 | 29.41604 | 37021 ft | 565 kts | 131° |
| 2026-04-30 13:33 | 29.97415 | 29.55861 | 37027 ft | 564 kts | 131° |
| 2026-04-30 13:34 | 29.90113 | 29.66523 | 37012 ft | 566 kts | 131° |
| 2026-04-30 13:35 | 29.80351 | 29.80733 | 36994 ft | 564 kts | 131° |
| 2026-04-30 13:36 | 29.70619 | 29.94849 | 37002 ft | 565 kts | 131° |
| 2026-04-30 13:36 | 29.63272 | 30.05475 | 37004 ft | 564 kts | 131° |
| 2026-04-30 13:37 | 29.55944 | 30.16044 | 37008 ft | 565 kts | 131° |
| 2026-04-30 13:38 | 29.48594 | 30.26619 | 37010 ft | 564 kts | 131° |
| 2026-04-30 13:39 | 29.38619 | 30.40622 | 36990 ft | 562 kts | 136° |
| 2026-04-30 13:40 | 29.30551 | 30.50293 | 36972 ft | 561 kts | 137° |
| 2026-04-30 13:40 | 29.25100 | 30.56788 | 36967 ft | 560 kts | 137° |
| 2026-04-30 13:41 | 29.19706 | 30.63207 | 36973 ft | 561 kts | 137° |
| 2026-04-30 13:41 | 29.14294 | 30.69637 | 36958 ft | 559 kts | 137° |
| 2026-04-30 13:42 | 29.08886 | 30.76049 | 36963 ft | 562 kts | 137° |
| 2026-04-30 13:42 | 29.00759 | 30.85669 | 36965 ft | 561 kts | 137° |
| 2026-04-30 13:43 | 28.95333 | 30.92078 | 36959 ft | 560 kts | 137° |
| 2026-04-30 13:43 | 28.89890 | 30.98497 | 36963 ft | 559 kts | 137° |
| 2026-04-30 13:44 | 28.84470 | 31.04878 | 36962 ft | 560 kts | 137° |
| 2026-04-30 13:44 | 28.79037 | 31.11265 | 36964 ft | 561 kts | 137° |
| 2026-04-30 13:45 | 28.70887 | 31.20827 | 36978 ft | 560 kts | 138° |
| 2026-04-30 13:46 | 28.65582 | 31.27334 | 36977 ft | 561 kts | 135° |
| 2026-04-30 13:46 | 28.60386 | 31.33922 | 36986 ft | 560 kts | 135° |
| 2026-04-30 13:47 | 28.55153 | 31.40529 | 36992 ft | 562 kts | 135° |
| 2026-04-30 13:47 | 28.52522 | 31.43842 | 36877 ft | 563 kts | 135° |
| 2026-04-30 13:47 | 28.49899 | 31.47141 | 36998 ft | 563 kts | 136° |
| 2026-04-30 13:48 | 28.44636 | 31.53746 | 37003 ft | 563 kts | 136° |
| 2026-04-30 13:48 | 28.39389 | 31.60319 | 37007 ft | 563 kts | 136° |
| 2026-04-30 13:49 | 28.34092 | 31.66940 | 36992 ft | 562 kts | 136° |
| 2026-04-30 13:49 | 28.28818 | 31.73520 | 37006 ft | 561 kts | 136° |
| 2026-04-30 13:50 | 28.23577 | 31.80049 | 37012 ft | 561 kts | 137° |
| 2026-04-30 13:50 | 28.15676 | 31.89871 | 37021 ft | 561 kts | 136° |
| 2026-04-30 13:51 | 28.10433 | 31.96375 | 37022 ft | 561 kts | 137° |
| 2026-04-30 13:51 | 28.05159 | 32.02931 | 37014 ft | 562 kts | 135° |
| 2026-04-30 13:52 | 28.00821 | 32.10310 | 36886 ft | 571 kts | 121° |
| 2026-04-30 13:52 | 27.98916 | 32.14266 | 37077 ft | 572 kts | 122° |
| 2026-04-30 13:52 | 27.97026 | 32.18211 | 37062 ft | 571 kts | 121° |
| 2026-04-30 13:53 | 27.93230 | 32.26109 | 37048 ft | 572 kts | 121° |
| 2026-04-30 13:53 | 27.89420 | 32.34012 | 37034 ft | 571 kts | 122° |
| 2026-04-30 13:54 | 27.85602 | 32.41908 | 37036 ft | 573 kts | 121° |
| 2026-04-30 13:54 | 27.81813 | 32.49728 | 37020 ft | 572 kts | 122° |
| 2026-04-30 13:55 | 27.77985 | 32.57611 | 37018 ft | 571 kts | 122° |
| 2026-04-30 13:55 | 27.74139 | 32.65512 | 37015 ft | 574 kts | 123° |
| 2026-04-30 13:56 | 27.70318 | 32.73348 | 36999 ft | 573 kts | 122° |
| 2026-04-30 13:56 | 27.66472 | 32.81221 | 36996 ft | 572 kts | 122° |
| 2026-04-30 13:57 | 27.62631 | 32.89066 | 36988 ft | 573 kts | 122° |
| 2026-04-30 13:57 | 27.58773 | 32.96934 | 36980 ft | 570 kts | 123° |
| 2026-04-30 13:58 | 27.53023 | 33.08632 | 36981 ft | 572 kts | 122° |
| 2026-04-30 13:59 | 27.49158 | 33.16476 | 36955 ft | 573 kts | 123° |
| 2026-04-30 13:59 | 27.45276 | 33.24340 | 36942 ft | 574 kts | 123° |
| 2026-04-30 14:00 | 27.41415 | 33.32149 | 36945 ft | 574 kts | 122° |
| 2026-04-30 14:00 | 27.35557 | 33.43966 | 36933 ft | 576 kts | 123° |
| 2026-04-30 14:01 | 27.31658 | 33.51814 | 36925 ft | 575 kts | 123° |
| 2026-04-30 14:01 | 27.27748 | 33.59668 | 36920 ft | 578 kts | 123° |
| 2026-04-30 14:02 | 27.23838 | 33.67509 | 36889 ft | 576 kts | 123° |
| 2026-04-30 14:02 | 27.19925 | 33.75342 | 36890 ft | 577 kts | 123° |
| 2026-04-30 14:03 | 27.16391 | 33.83476 | 36895 ft | 581 kts | 115° |
| 2026-04-30 14:03 | 27.14895 | 33.87679 | 36740 ft | 581 kts | 115° |
| 2026-04-30 14:03 | 27.13407 | 33.91882 | 36886 ft | 583 kts | 115° |
| 2026-04-30 14:04 | 27.10407 | 34.00335 | 36887 ft | 583 kts | 115° |
| 2026-04-30 14:04 | 27.07396 | 34.08795 | 36855 ft | 582 kts | 115° |
| 2026-04-30 14:05 | 27.04368 | 34.17274 | 36967 ft | 581 kts | 115° |
| 2026-04-30 14:05 | 27.01364 | 34.25660 | 36880 ft | 584 kts | 115° |
| 2026-04-30 14:06 | 26.96820 | 34.38307 | 36870 ft | 583 kts | 115° |
| 2026-04-30 14:07 | 26.92259 | 34.50959 | 36876 ft | 585 kts | 115° |
| 2026-04-30 14:08 | 26.87692 | 34.63585 | 36882 ft | 582 kts | 115° |
| 2026-04-30 14:08 | 26.83115 | 34.76196 | 36860 ft | 584 kts | 116° |
| 2026-04-30 14:09 | 26.80065 | 34.84577 | 36865 ft | 582 kts | 116° |
| 2026-04-30 14:10 | 26.75461 | 34.97196 | 36861 ft | 585 kts | 116° |
| 2026-04-30 14:10 | 26.72398 | 35.05575 | 36864 ft | 584 kts | 116° |
| 2026-04-30 14:11 | 26.69317 | 35.13987 | 36870 ft | 585 kts | 115° |
| 2026-04-30 14:11 | 26.66217 | 35.22431 | 36872 ft | 585 kts | 116° |
| 2026-04-30 14:12 | 26.63114 | 35.30867 | 36868 ft | 583 kts | 116° |
| 2026-04-30 14:12 | 26.60020 | 35.39257 | 36862 ft | 586 kts | 116° |
| 2026-04-30 14:13 | 26.56906 | 35.47685 | 36867 ft | 587 kts | 116° |
| 2026-04-30 14:13 | 26.53751 | 35.56031 | 36864 ft | 585 kts | 117° |
| 2026-04-30 14:14 | 26.50551 | 35.64391 | 36872 ft | 586 kts | 117° |
| 2026-04-30 14:14 | 26.47344 | 35.72763 | 36846 ft | 584 kts | 117° |
| 2026-04-30 14:15 | 26.44151 | 35.81082 | 36847 ft | 586 kts | 117° |
| 2026-04-30 14:15 | 26.40945 | 35.89422 | 36860 ft | 588 kts | 117° |
| 2026-04-30 14:16 | 26.37741 | 35.97743 | 36859 ft | 585 kts | 117° |
| 2026-04-30 14:16 | 26.34534 | 36.06053 | 36858 ft | 588 kts | 117° |
| 2026-04-30 14:17 | 26.31323 | 36.14358 | 36865 ft | 587 kts | 117° |
| 2026-04-30 14:17 | 26.28090 | 36.22704 | 36859 ft | 584 kts | 117° |
| 2026-04-30 14:18 | 26.24873 | 36.30988 | 36858 ft | 588 kts | 117° |
| 2026-04-30 14:18 | 26.20016 | 36.43470 | 36870 ft | 588 kts | 117° |
| 2026-04-30 14:19 | 26.14601 | 36.55622 | 36874 ft | 582 kts | 123° |
| 2026-04-30 14:20 | 26.10725 | 36.63480 | 36875 ft | 582 kts | 123° |
| 2026-04-30 14:20 | 26.04878 | 36.75313 | 36855 ft | 582 kts | 124° |
| 2026-04-30 14:21 | 26.01012 | 36.83128 | 36853 ft | 581 kts | 124° |
| 2026-04-30 14:22 | 25.95151 | 36.94945 | 36851 ft | 581 kts | 124° |
| 2026-04-30 14:22 | 25.89330 | 37.06656 | 36863 ft | 580 kts | 124° |
| 2026-04-30 14:23 | 25.81507 | 37.22346 | 36889 ft | 579 kts | 124° |
| 2026-04-30 14:24 | 25.75695 | 37.34015 | 36894 ft | 578 kts | 124° |
| 2026-04-30 14:25 | 25.67915 | 37.49620 | 36912 ft | 580 kts | 124° |
| 2026-04-30 14:26 | 25.62101 | 37.61247 | 36934 ft | 577 kts | 124° |
| 2026-04-30 14:27 | 25.56261 | 37.72894 | 36919 ft | 578 kts | 124° |
| 2026-04-30 14:27 | 25.52358 | 37.80660 | 36932 ft | 574 kts | 124° |
| 2026-04-30 14:28 | 25.46571 | 37.92152 | 36938 ft | 574 kts | 125° |
| 2026-04-30 14:28 | 25.42673 | 37.99876 | 36945 ft | 575 kts | 124° |